sensor_id;sensor_type;location;lat;lon;timestamp;P1;durP1;ratioP1;P2;durP2;ratioP2
38935;SDS011;66589;47.458;9.644;2023-02-01T00:02:07;8.30;;;4.35;;
38935;SDS011;66589;47.458;9.644;2023-02-01T00:04:33;11.25;;;4.82;;
38935;SDS011;66589;47.458;9.644;2023-02-01T00:06:59;10.52;;;4.45;;
38935;SDS011;66589;47.458;9.644;2023-02-01T00:09:25;12.07;;;5.03;;
38935;SDS011;66589;47.458;9.644;2023-02-01T00:11:51;10.32;;;4.85;;
38935;SDS011;66589;47.458;9.644;2023-02-01T00:14:17;10.82;;;5.10;;
38935;SDS011;66589;47.458;9.644;2023-02-01T00:16:43;9.98;;;4.57;;
38935;SDS011;66589;47.458;9.644;2023-02-01T00:19:13;11.35;;;4.90;;
38935;SDS011;66589;47.458;9.644;2023-02-01T00:21:40;11.48;;;4.40;;
38935;SDS011;66589;47.458;9.644;2023-02-01T00:24:06;12.48;;;5.47;;
38935;SDS011;66589;47.458;9.644;2023-02-01T00:29:00;14.48;;;5.88;;
38935;SDS011;66589;47.458;9.644;2023-02-01T00:31:26;15.73;;;6.05;;
38935;SDS011;66589;47.458;9.644;2023-02-01T00:33:52;13.20;;;5.70;;
38935;SDS011;66589;47.458;9.644;2023-02-01T00:36:18;13.48;;;5.43;;
38935;SDS011;66589;47.458;9.644;2023-02-01T00:38:44;12.20;;;5.97;;
38935;SDS011;66589;47.458;9.644;2023-02-01T00:41:14;15.10;;;6.07;;
38935;SDS011;66589;47.458;9.644;2023-02-01T00:43:42;13.93;;;6.15;;
38935;SDS011;66589;47.458;9.644;2023-02-01T00:46:09;12.27;;;6.03;;
38935;SDS011;66589;47.458;9.644;2023-02-01T00:48:35;14.63;;;6.32;;
38935;SDS011;66589;47.458;9.644;2023-02-01T00:51:02;13.75;;;6.35;;
38935;SDS011;66589;47.458;9.644;2023-02-01T00:53:30;15.02;;;6.80;;
38935;SDS011;66589;47.458;9.644;2023-02-01T00:55:56;14.55;;;6.03;;
38935;SDS011;66589;47.458;9.644;2023-02-01T00:58:22;15.70;;;6.22;;
38935;SDS011;66589;47.458;9.644;2023-02-01T01:03:32;12.55;;;5.47;;
38935;SDS011;66589;47.458;9.644;2023-02-01T01:06:01;13.30;;;5.88;;
38935;SDS011;66589;47.458;9.644;2023-02-01T01:08:31;14.88;;;5.38;;
38935;SDS011;66589;47.458;9.644;2023-02-01T01:10:57;14.50;;;5.50;;
38935;SDS011;66589;47.458;9.644;2023-02-01T01:13:23;15.55;;;5.45;;
38935;SDS011;66589;47.458;9.644;2023-02-01T01:15:49;14.23;;;5.40;;
38935;SDS011;66589;47.458;9.644;2023-02-01T01:18:15;11.88;;;5.00;;
38935;SDS011;66589;47.458;9.644;2023-02-01T01:20:41;13.18;;;5.72;;
38935;SDS011;66589;47.458;9.644;2023-02-01T01:23:07;10.98;;;5.10;;
38935;SDS011;66589;47.458;9.644;2023-02-01T01:25:37;11.93;;;5.10;;
38935;SDS011;66589;47.458;9.644;2023-02-01T01:28:04;12.48;;;5.05;;
38935;SDS011;66589;47.458;9.644;2023-02-01T01:30:29;13.68;;;5.68;;
38935;SDS011;66589;47.458;9.644;2023-02-01T01:32:55;9.85;;;4.18;;
38935;SDS011;66589;47.458;9.644;2023-02-01T01:35:21;8.88;;;4.07;;
38935;SDS011;66589;47.458;9.644;2023-02-01T01:37:46;9.75;;;4.25;;
38935;SDS011;66589;47.458;9.644;2023-02-01T01:40:12;9.48;;;3.90;;
38935;SDS011;66589;47.458;9.644;2023-02-01T01:42:39;11.25;;;4.38;;
38935;SDS011;66589;47.458;9.644;2023-02-01T01:45:07;8.18;;;4.18;;
38935;SDS011;66589;47.458;9.644;2023-02-01T01:48:04;10.10;;;4.03;;
38935;SDS011;66589;47.458;9.644;2023-02-01T01:50:40;10.93;;;4.75;;
38935;SDS011;66589;47.458;9.644;2023-02-01T01:53:09;8.70;;;4.10;;
38935;SDS011;66589;47.458;9.644;2023-02-01T01:55:38;10.75;;;4.65;;
38935;SDS011;66589;47.458;9.644;2023-02-01T01:58:10;8.60;;;3.97;;
38935;SDS011;66589;47.458;9.644;2023-02-01T02:00:41;10.52;;;4.57;;
38935;SDS011;66589;47.458;9.644;2023-02-01T02:03:10;10.57;;;4.30;;
38935;SDS011;66589;47.458;9.644;2023-02-01T02:05:37;10.27;;;3.88;;
38935;SDS011;66589;47.458;9.644;2023-02-01T02:08:03;10.32;;;4.25;;
38935;SDS011;66589;47.458;9.644;2023-02-01T02:10:29;9.80;;;3.75;;
38935;SDS011;66589;47.458;9.644;2023-02-01T02:13:14;10.23;;;4.10;;
38935;SDS011;66589;47.458;9.644;2023-02-01T02:15:43;8.95;;;4.13;;
38935;SDS011;66589;47.458;9.644;2023-02-01T02:18:35;9.02;;;3.88;;
38935;SDS011;66589;47.458;9.644;2023-02-01T02:21:14;11.40;;;4.53;;
38935;SDS011;66589;47.458;9.644;2023-02-01T02:26:39;7.72;;;3.85;;
38935;SDS011;66589;47.458;9.644;2023-02-01T02:35:05;10.85;;;3.88;;
38935;SDS011;66589;47.458;9.644;2023-02-01T02:37:42;9.32;;;3.50;;
38935;SDS011;66589;47.458;9.644;2023-02-01T02:51:30;8.05;;;3.30;;
38935;SDS011;66589;47.458;9.644;2023-02-01T02:54:25;7.53;;;2.83;;
38935;SDS011;66589;47.458;9.644;2023-02-01T02:57:28;6.85;;;3.10;;
38935;SDS011;66589;47.458;9.644;2023-02-01T03:00:18;6.80;;;2.78;;
38935;SDS011;66589;47.458;9.644;2023-02-01T03:03:05;8.85;;;2.40;;
38935;SDS011;66589;47.458;9.644;2023-02-01T03:05:50;7.65;;;2.72;;
38935;SDS011;66589;47.458;9.644;2023-02-01T03:08:24;9.10;;;3.13;;
38935;SDS011;66589;47.458;9.644;2023-02-01T03:15:54;6.88;;;2.67;;
38935;SDS011;66589;47.458;9.644;2023-02-01T03:18:42;9.75;;;3.90;;
38935;SDS011;66589;47.458;9.644;2023-02-01T03:21:43;6.80;;;2.80;;
38935;SDS011;66589;47.458;9.644;2023-02-01T03:26:58;8.95;;;3.40;;
38935;SDS011;66589;47.458;9.644;2023-02-01T03:29:33;7.45;;;3.10;;
38935;SDS011;66589;47.458;9.644;2023-02-01T03:32:06;7.97;;;3.70;;
38935;SDS011;66589;47.458;9.644;2023-02-01T03:34:34;10.80;;;3.63;;
38935;SDS011;66589;47.458;9.644;2023-02-01T03:37:01;8.38;;;3.00;;
38935;SDS011;66589;47.458;9.644;2023-02-01T03:41:57;9.77;;;3.63;;
38935;SDS011;66589;47.458;9.644;2023-02-01T03:44:27;8.38;;;3.67;;
38935;SDS011;66589;47.458;9.644;2023-02-01T03:47:02;6.88;;;2.95;;
38935;SDS011;66589;47.458;9.644;2023-02-01T03:49:44;7.25;;;2.95;;
38935;SDS011;66589;47.458;9.644;2023-02-01T03:52:25;8.23;;;3.00;;
38935;SDS011;66589;47.458;9.644;2023-02-01T03:55:21;5.80;;;2.60;;
38935;SDS011;66589;47.458;9.644;2023-02-01T03:57:52;10.27;;;2.80;;
38935;SDS011;66589;47.458;9.644;2023-02-01T04:00:31;6.25;;;2.83;;
38935;SDS011;66589;47.458;9.644;2023-02-01T04:02:57;6.70;;;2.67;;
38935;SDS011;66589;47.458;9.644;2023-02-01T04:05:23;6.70;;;2.70;;
38935;SDS011;66589;47.458;9.644;2023-02-01T04:07:49;6.80;;;2.47;;
38935;SDS011;66589;47.458;9.644;2023-02-01T04:10:15;7.20;;;3.00;;
38935;SDS011;66589;47.458;9.644;2023-02-01T04:12:41;7.57;;;3.08;;
38935;SDS011;66589;47.458;9.644;2023-02-01T04:15:07;12.75;;;2.75;;
38935;SDS011;66589;47.458;9.644;2023-02-01T04:17:34;5.68;;;2.63;;
38935;SDS011;66589;47.458;9.644;2023-02-01T04:19:59;7.43;;;2.63;;
38935;SDS011;66589;47.458;9.644;2023-02-01T04:22:25;8.07;;;3.05;;
38935;SDS011;66589;47.458;9.644;2023-02-01T04:24:51;5.05;;;2.38;;
38935;SDS011;66589;47.458;9.644;2023-02-01T04:27:16;5.97;;;2.35;;
38935;SDS011;66589;47.458;9.644;2023-02-01T04:29:42;7.35;;;3.00;;
38935;SDS011;66589;47.458;9.644;2023-02-01T04:32:10;6.40;;;2.72;;
38935;SDS011;66589;47.458;9.644;2023-02-01T04:34:35;7.85;;;2.83;;
38935;SDS011;66589;47.458;9.644;2023-02-01T04:37:01;7.03;;;2.95;;
38935;SDS011;66589;47.458;9.644;2023-02-01T04:39:27;6.07;;;2.53;;
38935;SDS011;66589;47.458;9.644;2023-02-01T04:41:53;13.43;;;2.88;;
38935;SDS011;66589;47.458;9.644;2023-02-01T04:44:19;11.60;;;2.60;;
38935;SDS011;66589;47.458;9.644;2023-02-01T04:46:45;7.50;;;2.75;;
38935;SDS011;66589;47.458;9.644;2023-02-01T04:49:12;5.65;;;1.90;;
38935;SDS011;66589;47.458;9.644;2023-02-01T04:51:39;5.10;;;1.98;;
38935;SDS011;66589;47.458;9.644;2023-02-01T04:54:05;5.05;;;1.70;;
38935;SDS011;66589;47.458;9.644;2023-02-01T04:56:31;7.68;;;1.77;;
38935;SDS011;66589;47.458;9.644;2023-02-01T04:58:57;4.80;;;1.60;;
38935;SDS011;66589;47.458;9.644;2023-02-01T05:01:23;5.50;;;1.50;;
38935;SDS011;66589;47.458;9.644;2023-02-01T05:03:55;4.95;;;1.77;;
38935;SDS011;66589;47.458;9.644;2023-02-01T05:06:21;5.25;;;2.25;;
38935;SDS011;66589;47.458;9.644;2023-02-01T05:08:47;5.82;;;1.75;;
38935;SDS011;66589;47.458;9.644;2023-02-01T05:11:13;3.95;;;1.50;;
38935;SDS011;66589;47.458;9.644;2023-02-01T05:13:57;7.20;;;1.30;;
38935;SDS011;66589;47.458;9.644;2023-02-01T05:16:24;4.90;;;1.70;;
38935;SDS011;66589;47.458;9.644;2023-02-01T05:18:50;12.93;;;2.28;;
38935;SDS011;66589;47.458;9.644;2023-02-01T05:21:16;5.88;;;1.48;;
38935;SDS011;66589;47.458;9.644;2023-02-01T05:23:41;6.63;;;1.30;;
38935;SDS011;66589;47.458;9.644;2023-02-01T05:26:26;4.68;;;1.40;;
38935;SDS011;66589;47.458;9.644;2023-02-01T05:28:51;9.40;;;2.05;;
38935;SDS011;66589;47.458;9.644;2023-02-01T05:31:17;4.30;;;1.42;;
38935;SDS011;66589;47.458;9.644;2023-02-01T05:33:43;9.27;;;1.98;;
38935;SDS011;66589;47.458;9.644;2023-02-01T05:36:08;6.50;;;1.58;;
38935;SDS011;66589;47.458;9.644;2023-02-01T05:38:34;19.17;;;3.78;;
38935;SDS011;66589;47.458;9.644;2023-02-01T05:41:00;7.03;;;2.00;;
38935;SDS011;66589;47.458;9.644;2023-02-01T05:43:25;8.27;;;2.33;;
38935;SDS011;66589;47.458;9.644;2023-02-01T05:45:51;5.18;;;1.88;;
38935;SDS011;66589;47.458;9.644;2023-02-01T05:48:18;6.18;;;2.13;;
38935;SDS011;66589;47.458;9.644;2023-02-01T05:50:43;4.97;;;1.70;;
38935;SDS011;66589;47.458;9.644;2023-02-01T05:53:09;11.13;;;2.25;;
38935;SDS011;66589;47.458;9.644;2023-02-01T05:55:35;6.95;;;2.10;;
38935;SDS011;66589;47.458;9.644;2023-02-01T05:58:02;8.20;;;2.00;;
38935;SDS011;66589;47.458;9.644;2023-02-01T06:00:28;6.10;;;1.90;;
38935;SDS011;66589;47.458;9.644;2023-02-01T06:02:54;8.35;;;1.80;;
38935;SDS011;66589;47.458;9.644;2023-02-01T06:05:19;4.82;;;1.80;;
38935;SDS011;66589;47.458;9.644;2023-02-01T06:07:45;5.82;;;2.00;;
38935;SDS011;66589;47.458;9.644;2023-02-01T06:10:11;7.45;;;2.03;;
38935;SDS011;66589;47.458;9.644;2023-02-01T06:12:37;7.38;;;2.22;;
38935;SDS011;66589;47.458;9.644;2023-02-01T06:15:03;5.60;;;2.33;;
38935;SDS011;66589;47.458;9.644;2023-02-01T06:17:30;7.10;;;2.05;;
38935;SDS011;66589;47.458;9.644;2023-02-01T06:19:56;6.53;;;1.95;;
38935;SDS011;66589;47.458;9.644;2023-02-01T06:22:21;6.60;;;2.42;;
38935;SDS011;66589;47.458;9.644;2023-02-01T06:24:47;6.47;;;2.30;;
38935;SDS011;66589;47.458;9.644;2023-02-01T06:27:13;7.85;;;2.13;;
38935;SDS011;66589;47.458;9.644;2023-02-01T06:29:39;8.57;;;2.13;;
38935;SDS011;66589;47.458;9.644;2023-02-01T06:32:05;5.35;;;1.98;;
38935;SDS011;66589;47.458;9.644;2023-02-01T06:34:31;5.72;;;2.17;;
38935;SDS011;66589;47.458;9.644;2023-02-01T06:36:57;5.00;;;2.05;;
38935;SDS011;66589;47.458;9.644;2023-02-01T06:39:23;5.97;;;2.15;;
38935;SDS011;66589;47.458;9.644;2023-02-01T06:41:49;6.70;;;1.98;;
38935;SDS011;66589;47.458;9.644;2023-02-01T06:44:15;10.73;;;3.80;;
38935;SDS011;66589;47.458;9.644;2023-02-01T06:46:42;10.32;;;2.90;;
38935;SDS011;66589;47.458;9.644;2023-02-01T06:49:08;5.13;;;2.00;;
38935;SDS011;66589;47.458;9.644;2023-02-01T06:51:33;5.88;;;2.08;;
38935;SDS011;66589;47.458;9.644;2023-02-01T06:53:59;5.32;;;1.77;;
38935;SDS011;66589;47.458;9.644;2023-02-01T06:56:25;7.88;;;2.25;;
38935;SDS011;66589;47.458;9.644;2023-02-01T06:58:51;7.72;;;2.17;;
38935;SDS011;66589;47.458;9.644;2023-02-01T07:01:17;5.60;;;1.95;;
38935;SDS011;66589;47.458;9.644;2023-02-01T07:03:48;4.93;;;1.73;;
38935;SDS011;66589;47.458;9.644;2023-02-01T07:06:16;9.30;;;2.60;;
38935;SDS011;66589;47.458;9.644;2023-02-01T07:08:42;4.30;;;1.42;;
38935;SDS011;66589;47.458;9.644;2023-02-01T07:11:10;4.65;;;1.60;;
38935;SDS011;66589;47.458;9.644;2023-02-01T07:13:37;5.18;;;2.28;;
38935;SDS011;66589;47.458;9.644;2023-02-01T07:16:04;4.32;;;1.38;;
38935;SDS011;66589;47.458;9.644;2023-02-01T07:18:32;9.57;;;1.80;;
38935;SDS011;66589;47.458;9.644;2023-02-01T07:20:58;8.98;;;2.13;;
38935;SDS011;66589;47.458;9.644;2023-02-01T07:26:04;3.92;;;1.42;;
38935;SDS011;66589;47.458;9.644;2023-02-01T07:28:32;3.92;;;1.10;;
38935;SDS011;66589;47.458;9.644;2023-02-01T07:31:06;4.20;;;1.63;;
38935;SDS011;66589;47.458;9.644;2023-02-01T07:33:34;7.45;;;1.65;;
38935;SDS011;66589;47.458;9.644;2023-02-01T07:36:00;5.55;;;1.60;;
38935;SDS011;66589;47.458;9.644;2023-02-01T07:38:28;6.05;;;1.95;;
38935;SDS011;66589;47.458;9.644;2023-02-01T07:40:57;5.50;;;1.85;;
38935;SDS011;66589;47.458;9.644;2023-02-01T07:43:24;6.82;;;1.50;;
38935;SDS011;66589;47.458;9.644;2023-02-01T07:45:51;11.77;;;3.50;;
38935;SDS011;66589;47.458;9.644;2023-02-01T07:48:17;17.58;;;4.40;;
38935;SDS011;66589;47.458;9.644;2023-02-01T07:50:43;34.17;;;8.38;;
38935;SDS011;66589;47.458;9.644;2023-02-01T07:53:08;5.63;;;1.55;;
38935;SDS011;66589;47.458;9.644;2023-02-01T07:55:36;5.53;;;1.02;;
38935;SDS011;66589;47.458;9.644;2023-02-01T07:58:03;3.00;;;1.15;;
38935;SDS011;66589;47.458;9.644;2023-02-01T08:00:28;4.97;;;1.30;;
38935;SDS011;66589;47.458;9.644;2023-02-01T08:03:12;5.72;;;1.40;;
38935;SDS011;66589;47.458;9.644;2023-02-01T08:05:38;5.03;;;1.83;;
38935;SDS011;66589;47.458;9.644;2023-02-01T08:08:04;5.93;;;2.60;;
38935;SDS011;66589;47.458;9.644;2023-02-01T08:10:30;6.07;;;1.38;;
38935;SDS011;66589;47.458;9.644;2023-02-01T08:12:59;4.45;;;1.38;;
38935;SDS011;66589;47.458;9.644;2023-02-01T08:15:26;5.22;;;1.40;;
38935;SDS011;66589;47.458;9.644;2023-02-01T08:17:53;4.30;;;1.30;;
38935;SDS011;66589;47.458;9.644;2023-02-01T08:20:23;6.15;;;2.05;;
38935;SDS011;66589;47.458;9.644;2023-02-01T08:22:50;5.85;;;1.83;;
38935;SDS011;66589;47.458;9.644;2023-02-01T08:25:16;6.18;;;1.55;;
38935;SDS011;66589;47.458;9.644;2023-02-01T08:27:42;5.35;;;1.35;;
38935;SDS011;66589;47.458;9.644;2023-02-01T08:30:09;5.28;;;1.90;;
38935;SDS011;66589;47.458;9.644;2023-02-01T08:32:35;7.03;;;1.80;;
38935;SDS011;66589;47.458;9.644;2023-02-01T08:35:01;4.55;;;1.23;;
38935;SDS011;66589;47.458;9.644;2023-02-01T08:37:28;3.53;;;1.25;;
38935;SDS011;66589;47.458;9.644;2023-02-01T08:39:54;5.68;;;1.35;;
38935;SDS011;66589;47.458;9.644;2023-02-01T08:42:19;5.35;;;1.40;;
38935;SDS011;66589;47.458;9.644;2023-02-01T08:45:05;5.78;;;1.48;;
38935;SDS011;66589;47.458;9.644;2023-02-01T08:47:32;5.13;;;1.38;;
38935;SDS011;66589;47.458;9.644;2023-02-01T08:49:58;5.72;;;1.55;;
38935;SDS011;66589;47.458;9.644;2023-02-01T08:52:24;4.50;;;1.58;;
38935;SDS011;66589;47.458;9.644;2023-02-01T08:54:50;4.88;;;1.60;;
38935;SDS011;66589;47.458;9.644;2023-02-01T08:57:15;4.25;;;1.48;;
38935;SDS011;66589;47.458;9.644;2023-02-01T08:59:42;5.13;;;1.20;;
38935;SDS011;66589;47.458;9.644;2023-02-01T09:02:12;4.97;;;1.48;;
38935;SDS011;66589;47.458;9.644;2023-02-01T09:04:38;6.70;;;2.00;;
38935;SDS011;66589;47.458;9.644;2023-02-01T09:07:04;13.25;;;5.30;;
38935;SDS011;66589;47.458;9.644;2023-02-01T09:09:33;6.20;;;2.60;;
38935;SDS011;66589;47.458;9.644;2023-02-01T09:12:02;4.45;;;1.50;;
38935;SDS011;66589;47.458;9.644;2023-02-01T09:14:34;8.10;;;4.57;;
38935;SDS011;66589;47.458;9.644;2023-02-01T09:17:00;6.78;;;2.00;;
38935;SDS011;66589;47.458;9.644;2023-02-01T09:19:26;4.63;;;1.02;;
38935;SDS011;66589;47.458;9.644;2023-02-01T09:21:52;6.25;;;2.63;;
38935;SDS011;66589;47.458;9.644;2023-02-01T09:24:18;4.78;;;1.98;;
38935;SDS011;66589;47.458;9.644;2023-02-01T09:26:44;4.15;;;1.40;;
38935;SDS011;66589;47.458;9.644;2023-02-01T09:29:09;4.35;;;0.90;;
38935;SDS011;66589;47.458;9.644;2023-02-01T09:31:35;3.60;;;0.73;;
38935;SDS011;66589;47.458;9.644;2023-02-01T09:34:01;3.97;;;0.52;;
38935;SDS011;66589;47.458;9.644;2023-02-01T09:36:27;3.53;;;0.50;;
38935;SDS011;66589;47.458;9.644;2023-02-01T09:38:53;1.88;;;0.40;;
38935;SDS011;66589;47.458;9.644;2023-02-01T09:47:18;5.22;;;0.60;;
38935;SDS011;66589;47.458;9.644;2023-02-01T09:50:03;1.88;;;0.63;;
38935;SDS011;66589;47.458;9.644;2023-02-01T09:52:52;2.47;;;0.80;;
38935;SDS011;66589;47.458;9.644;2023-02-01T09:55:36;2.22;;;0.50;;
38935;SDS011;66589;47.458;9.644;2023-02-01T10:00:54;2.88;;;0.60;;
38935;SDS011;66589;47.458;9.644;2023-02-01T10:03:26;2.28;;;0.63;;
38935;SDS011;66589;47.458;9.644;2023-02-01T10:05:58;2.00;;;0.50;;
38935;SDS011;66589;47.458;9.644;2023-02-01T10:17:25;17.13;;;2.35;;
38935;SDS011;66589;47.458;9.644;2023-02-01T10:23:03;18.95;;;3.05;;
38935;SDS011;66589;47.458;9.644;2023-02-01T10:25:52;20.23;;;3.00;;
38935;SDS011;66589;47.458;9.644;2023-02-01T10:28:20;25.77;;;3.30;;
38935;SDS011;66589;47.458;9.644;2023-02-01T10:30:48;9.38;;;2.38;;
38935;SDS011;66589;47.458;9.644;2023-02-01T10:33:18;14.20;;;2.53;;
38935;SDS011;66589;47.458;9.644;2023-02-01T10:38:44;10.15;;;1.70;;
38935;SDS011;66589;47.458;9.644;2023-02-01T10:41:12;12.13;;;2.13;;
38935;SDS011;66589;47.458;9.644;2023-02-01T10:43:38;11.50;;;3.30;;
38935;SDS011;66589;47.458;9.644;2023-02-01T10:46:06;8.98;;;2.42;;
38935;SDS011;66589;47.458;9.644;2023-02-01T10:48:32;11.90;;;2.00;;
38935;SDS011;66589;47.458;9.644;2023-02-01T10:50:58;6.10;;;1.95;;
38935;SDS011;66589;47.458;9.644;2023-02-01T10:53:35;11.07;;;3.03;;
38935;SDS011;66589;47.458;9.644;2023-02-01T10:56:26;11.30;;;4.22;;
38935;SDS011;66589;47.458;9.644;2023-02-01T10:58:59;8.75;;;2.08;;
38935;SDS011;66589;47.458;9.644;2023-02-01T11:01:42;11.15;;;2.30;;
38935;SDS011;66589;47.458;9.644;2023-02-01T11:04:13;7.00;;;2.30;;
38935;SDS011;66589;47.458;9.644;2023-02-01T11:06:42;6.47;;;1.77;;
38935;SDS011;66589;47.458;9.644;2023-02-01T11:14:19;8.27;;;2.47;;
38935;SDS011;66589;47.458;9.644;2023-02-01T11:16:59;6.03;;;2.00;;
38935;SDS011;66589;47.458;9.644;2023-02-01T11:19:27;5.72;;;1.48;;
38935;SDS011;66589;47.458;9.644;2023-02-01T11:21:54;7.40;;;1.45;;
38935;SDS011;66589;47.458;9.644;2023-02-01T11:27:03;4.50;;;1.00;;
38935;SDS011;66589;47.458;9.644;2023-02-01T11:29:41;4.45;;;1.20;;
38935;SDS011;66589;47.458;9.644;2023-02-01T11:32:08;4.60;;;1.20;;
38935;SDS011;66589;47.458;9.644;2023-02-01T11:34:42;3.35;;;0.70;;
38935;SDS011;66589;47.458;9.644;2023-02-01T11:37:21;5.00;;;0.90;;
38935;SDS011;66589;47.458;9.644;2023-02-01T11:39:56;5.80;;;1.63;;
38935;SDS011;66589;47.458;9.644;2023-02-01T11:42:23;4.03;;;0.73;;
38935;SDS011;66589;47.458;9.644;2023-02-01T11:44:50;4.25;;;0.70;;
38935;SDS011;66589;47.458;9.644;2023-02-01T11:47:39;1.25;;;0.30;;
38935;SDS011;66589;47.458;9.644;2023-02-01T11:50:12;1.40;;;0.30;;
38935;SDS011;66589;47.458;9.644;2023-02-01T12:12:30;7.90;;;0.90;;
38935;SDS011;66589;47.458;9.644;2023-02-01T12:17:39;6.53;;;1.38;;
38935;SDS011;66589;47.458;9.644;2023-02-01T12:20:34;6.05;;;1.20;;
38935;SDS011;66589;47.458;9.644;2023-02-01T12:23:27;3.75;;;0.50;;
38935;SDS011;66589;47.458;9.644;2023-02-01T12:40:18;2.33;;;0.57;;
38935;SDS011;66589;47.458;9.644;2023-02-01T12:43:20;1.90;;;0.52;;
38935;SDS011;66589;47.458;9.644;2023-02-01T12:46:02;1.52;;;0.30;;
38935;SDS011;66589;47.458;9.644;2023-02-01T12:51:20;2.00;;;0.30;;
38935;SDS011;66589;47.458;9.644;2023-02-01T12:59:32;3.47;;;0.20;;
38935;SDS011;66589;47.458;9.644;2023-02-01T13:04:49;2.80;;;0.10;;
38935;SDS011;66589;47.458;9.644;2023-02-01T13:07:20;2.45;;;0.20;;
38935;SDS011;66589;47.458;9.644;2023-02-01T13:15:00;1.33;;;0.20;;
38935;SDS011;66589;47.458;9.644;2023-02-01T13:17:47;3.67;;;0.28;;
38935;SDS011;66589;47.458;9.644;2023-02-01T13:20:29;1.00;;;0.20;;
38935;SDS011;66589;47.458;9.644;2023-02-01T13:23:03;1.02;;;0.30;;
38935;SDS011;66589;47.458;9.644;2023-02-01T13:28:13;1.60;;;0.30;;
38935;SDS011;66589;47.458;9.644;2023-02-01T13:33:47;2.83;;;0.38;;
38935;SDS011;66589;47.458;9.644;2023-02-01T13:41:55;2.65;;;0.30;;
38935;SDS011;66589;47.458;9.644;2023-02-01T13:44:32;3.00;;;0.40;;
38935;SDS011;66589;47.458;9.644;2023-02-01T13:47:09;2.35;;;0.80;;
38935;SDS011;66589;47.458;9.644;2023-02-01T13:49:52;2.10;;;0.40;;
38935;SDS011;66589;47.458;9.644;2023-02-01T13:57:50;2.10;;;0.43;;
38935;SDS011;66589;47.458;9.644;2023-02-01T14:03:01;2.25;;;0.30;;
38935;SDS011;66589;47.458;9.644;2023-02-01T14:08:35;3.30;;;0.40;;
38935;SDS011;66589;47.458;9.644;2023-02-01T14:11:07;2.70;;;0.40;;
38935;SDS011;66589;47.458;9.644;2023-02-01T14:14:06;4.70;;;0.60;;
38935;SDS011;66589;47.458;9.644;2023-02-01T14:16:42;1.98;;;0.40;;
38935;SDS011;66589;47.458;9.644;2023-02-01T14:19:18;3.25;;;0.40;;
38935;SDS011;66589;47.458;9.644;2023-02-01T14:21:48;3.17;;;0.55;;
38935;SDS011;66589;47.458;9.644;2023-02-01T14:24:32;3.00;;;0.38;;
38935;SDS011;66589;47.458;9.644;2023-02-01T14:27:00;2.63;;;0.50;;
38935;SDS011;66589;47.458;9.644;2023-02-01T14:29:39;3.38;;;0.40;;
38935;SDS011;66589;47.458;9.644;2023-02-01T14:32:14;2.47;;;0.50;;
38935;SDS011;66589;47.458;9.644;2023-02-01T14:44:49;2.72;;;0.73;;
38935;SDS011;66589;47.458;9.644;2023-02-01T14:52:19;6.18;;;0.52;;
38935;SDS011;66589;47.458;9.644;2023-02-01T14:54:54;9.15;;;1.35;;
38935;SDS011;66589;47.458;9.644;2023-02-01T14:57:24;3.55;;;0.80;;
38935;SDS011;66589;47.458;9.644;2023-02-01T14:59:55;6.18;;;0.82;;
38935;SDS011;66589;47.458;9.644;2023-02-01T15:02:30;5.22;;;0.90;;
38935;SDS011;66589;47.458;9.644;2023-02-01T15:04:59;3.17;;;0.47;;
38935;SDS011;66589;47.458;9.644;2023-02-01T15:07:25;6.43;;;0.85;;
38935;SDS011;66589;47.458;9.644;2023-02-01T15:09:53;9.68;;;1.50;;
38935;SDS011;66589;47.458;9.644;2023-02-01T15:12:23;4.65;;;0.82;;
38935;SDS011;66589;47.458;9.644;2023-02-01T15:17:36;7.53;;;1.20;;
38935;SDS011;66589;47.458;9.644;2023-02-01T15:20:04;4.40;;;0.93;;
38935;SDS011;66589;47.458;9.644;2023-02-01T15:22:53;3.83;;;0.80;;
38935;SDS011;66589;47.458;9.644;2023-02-01T15:25:19;6.55;;;1.42;;
38935;SDS011;66589;47.458;9.644;2023-02-01T15:27:47;6.72;;;0.70;;
38935;SDS011;66589;47.458;9.644;2023-02-01T15:30:17;5.35;;;0.47;;
38935;SDS011;66589;47.458;9.644;2023-02-01T15:32:43;5.28;;;1.20;;
38935;SDS011;66589;47.458;9.644;2023-02-01T15:38:21;5.50;;;0.80;;
38935;SDS011;66589;47.458;9.644;2023-02-01T15:41:10;7.03;;;0.73;;
38935;SDS011;66589;47.458;9.644;2023-02-01T15:51:56;4.32;;;0.80;;
38935;SDS011;66589;47.458;9.644;2023-02-01T15:54:25;6.40;;;0.80;;
38935;SDS011;66589;47.458;9.644;2023-02-01T15:56:55;4.80;;;0.40;;
38935;SDS011;66589;47.458;9.644;2023-02-01T15:59:29;5.68;;;0.95;;
38935;SDS011;66589;47.458;9.644;2023-02-01T16:01:59;4.20;;;1.20;;
38935;SDS011;66589;47.458;9.644;2023-02-01T16:04:26;3.47;;;0.40;;
38935;SDS011;66589;47.458;9.644;2023-02-01T16:07:01;2.60;;;0.22;;
38935;SDS011;66589;47.458;9.644;2023-02-01T16:09:48;4.13;;;0.52;;
38935;SDS011;66589;47.458;9.644;2023-02-01T16:12:23;6.40;;;0.80;;
38935;SDS011;66589;47.458;9.644;2023-02-01T16:15:09;3.97;;;0.47;;
38935;SDS011;66589;47.458;9.644;2023-02-01T16:17:35;3.85;;;0.47;;
38935;SDS011;66589;47.458;9.644;2023-02-01T16:20:01;3.50;;;0.60;;
38935;SDS011;66589;47.458;9.644;2023-02-01T16:22:26;3.78;;;0.50;;
38935;SDS011;66589;47.458;9.644;2023-02-01T16:24:52;2.53;;;0.38;;
38935;SDS011;66589;47.458;9.644;2023-02-01T16:27:17;2.75;;;0.60;;
38935;SDS011;66589;47.458;9.644;2023-02-01T16:29:43;2.15;;;0.68;;
38935;SDS011;66589;47.458;9.644;2023-02-01T16:32:16;7.97;;;0.47;;
38935;SDS011;66589;47.458;9.644;2023-02-01T16:34:44;5.07;;;0.43;;
38935;SDS011;66589;47.458;9.644;2023-02-01T16:37:12;4.20;;;0.80;;
38935;SDS011;66589;47.458;9.644;2023-02-01T16:39:39;5.22;;;0.82;;
38935;SDS011;66589;47.458;9.644;2023-02-01T16:42:09;5.20;;;0.75;;
38935;SDS011;66589;47.458;9.644;2023-02-01T16:44:39;4.05;;;0.55;;
38935;SDS011;66589;47.458;9.644;2023-02-01T16:47:26;3.75;;;0.60;;
38935;SDS011;66589;47.458;9.644;2023-02-01T16:49:51;2.95;;;0.50;;
38935;SDS011;66589;47.458;9.644;2023-02-01T16:52:20;4.13;;;0.55;;
38935;SDS011;66589;47.458;9.644;2023-02-01T16:54:48;6.28;;;0.50;;
38935;SDS011;66589;47.458;9.644;2023-02-01T16:57:15;6.53;;;0.50;;
38935;SDS011;66589;47.458;9.644;2023-02-01T16:59:42;6.38;;;0.55;;
38935;SDS011;66589;47.458;9.644;2023-02-01T17:02:13;5.43;;;0.70;;
38935;SDS011;66589;47.458;9.644;2023-02-01T17:04:42;6.97;;;0.73;;
38935;SDS011;66589;47.458;9.644;2023-02-01T17:07:26;5.38;;;0.85;;
38935;SDS011;66589;47.458;9.644;2023-02-01T17:09:52;7.45;;;0.95;;
38935;SDS011;66589;47.458;9.644;2023-02-01T17:12:24;4.50;;;0.80;;
38935;SDS011;66589;47.458;9.644;2023-02-01T17:14:52;3.53;;;0.47;;
38935;SDS011;66589;47.458;9.644;2023-02-01T17:17:18;4.90;;;0.70;;
38935;SDS011;66589;47.458;9.644;2023-02-01T17:19:46;3.50;;;0.60;;
38935;SDS011;66589;47.458;9.644;2023-02-01T17:22:17;4.50;;;0.40;;
38935;SDS011;66589;47.458;9.644;2023-02-01T17:24:43;4.43;;;0.20;;
38935;SDS011;66589;47.458;9.644;2023-02-01T17:27:09;5.18;;;0.65;;
38935;SDS011;66589;47.458;9.644;2023-02-01T17:29:35;5.70;;;0.60;;
38935;SDS011;66589;47.458;9.644;2023-02-01T17:32:01;5.80;;;0.90;;
38935;SDS011;66589;47.458;9.644;2023-02-01T17:34:27;8.73;;;1.00;;
38935;SDS011;66589;47.458;9.644;2023-02-01T17:36:53;8.27;;;1.60;;
38935;SDS011;66589;47.458;9.644;2023-02-01T17:39:19;5.90;;;0.77;;
38935;SDS011;66589;47.458;9.644;2023-02-01T17:42:05;5.45;;;0.30;;
38935;SDS011;66589;47.458;9.644;2023-02-01T17:44:35;4.28;;;0.50;;
38935;SDS011;66589;47.458;9.644;2023-02-01T17:47:01;4.40;;;0.50;;
38935;SDS011;66589;47.458;9.644;2023-02-01T17:49:27;5.53;;;0.50;;
38935;SDS011;66589;47.458;9.644;2023-02-01T17:51:53;5.55;;;0.40;;
38935;SDS011;66589;47.458;9.644;2023-02-01T17:54:19;5.05;;;0.50;;
38935;SDS011;66589;47.458;9.644;2023-02-01T17:56:45;3.33;;;0.40;;
38935;SDS011;66589;47.458;9.644;2023-02-01T17:59:14;5.72;;;0.47;;